sensor_id;sensor_type;location;lat;lon;timestamp;pressure;altitude;pressure_sealevel;temperature;humidity
30714;BME280;17465;47.934;33.430;2023-03-23T00:00:49;57262.65;;;-140.43;87.62
30714;BME280;17465;47.934;33.430;2023-03-23T00:03:21;57267.95;;;-140.43;87.88
30714;BME280;17465;47.934;33.430;2023-03-23T00:05:51;57230.88;;;-140.43;89.45
30714;BME280;17465;47.934;33.430;2023-03-23T00:08:22;57230.88;;;-140.43;89.45
30714;BME280;17465;47.934;33.430;2023-03-23T00:10:52;57254.18;;;-140.43;88.22
30714;BME280;17465;47.934;33.430;2023-03-23T00:13:27;57255.24;;;-140.43;88.40
30714;BME280;17465;47.934;33.430;2023-03-23T00:15:53;57255.24;;;-140.43;88.40
30714;BME280;17465;47.934;33.430;2023-03-23T00:18:24;57255.24;;;-140.43;89.16
30714;BME280;17465;47.934;33.430;2023-03-23T00:20:55;57273.24;;;-140.43;89.80
30714;BME280;17465;47.934;33.430;2023-03-23T00:23:26;57280.66;;;-140.43;89.64
30714;BME280;17465;47.934;33.430;2023-03-23T00:25:56;57273.24;;;-140.43;89.86
30714;BME280;17465;47.934;33.430;2023-03-23T00:28:27;57233.00;;;-140.43;89.81
30714;BME280;17465;47.934;33.430;2023-03-23T00:30:59;57248.88;;;-140.43;89.27
30714;BME280;17465;47.934;33.430;2023-03-23T00:33:31;57248.88;;;-140.43;89.27
30714;BME280;17465;47.934;33.430;2023-03-23T00:36:01;57253.12;;;-140.43;89.13
30714;BME280;17465;47.934;33.430;2023-03-23T00:38:35;57258.41;;;-140.43;89.39
30714;BME280;17465;47.934;33.430;2023-03-23T00:41:19;57257.36;;;-140.43;89.19
30714;BME280;17465;47.934;33.430;2023-03-23T00:43:49;57276.42;;;-140.43;89.78
30714;BME280;17465;47.934;33.430;2023-03-23T00:46:20;57229.82;;;-140.43;89.86
30714;BME280;17465;47.934;33.430;2023-03-23T00:48:50;57258.41;;;-140.43;89.59
30714;BME280;17465;47.934;33.430;2023-03-23T00:51:22;57238.29;;;-140.43;89.60
30714;BME280;17465;47.934;33.430;2023-03-23T00:53:52;57259.47;;;-140.43;90.00
30714;BME280;17465;47.934;33.430;2023-03-23T00:56:22;57263.71;;;-140.43;89.86
30714;BME280;17465;47.934;33.430;2023-03-23T00:58:56;57263.71;;;-140.43;89.86
30714;BME280;17465;47.934;33.430;2023-03-23T01:01:22;57227.70;;;-140.43;90.02
30714;BME280;17465;47.934;33.430;2023-03-23T01:03:52;57273.24;;;-140.43;90.29
30714;BME280;17465;47.934;33.430;2023-03-23T01:06:21;57238.29;;;-140.43;90.27
30714;BME280;17465;47.934;33.430;2023-03-23T01:08:51;57265.83;;;-140.43;90.12
30714;BME280;17465;47.934;33.430;2023-03-23T01:11:22;57265.83;;;-140.43;90.12
30714;BME280;17465;47.934;33.430;2023-03-23T01:13:57;57262.65;;;-140.43;90.81
30714;BME280;17465;47.934;33.430;2023-03-23T01:16:22;57260.54;;;-140.43;90.87
30714;BME280;17465;47.934;33.430;2023-03-23T01:18:52;57267.95;;;-140.43;90.47
30714;BME280;17465;47.934;33.430;2023-03-23T01:21:22;57275.36;;;-140.43;90.41
30714;BME280;17465;47.934;33.430;2023-03-23T01:23:52;57246.77;;;-140.43;90.96
30714;BME280;17465;47.934;33.430;2023-03-23T01:26:23;57246.77;;;-140.43;90.96
30714;BME280;17465;47.934;33.430;2023-03-23T01:28:54;57280.66;;;-140.43;91.06
30714;BME280;17465;47.934;33.430;2023-03-23T01:31:25;57280.66;;;-140.43;91.06
30714;BME280;17465;47.934;33.430;2023-03-23T01:33:54;57270.06;;;-140.43;91.54
30714;BME280;17465;47.934;33.430;2023-03-23T01:36:26;57252.06;;;-140.43;91.48
30714;BME280;17465;47.934;33.430;2023-03-23T01:39:01;57252.06;;;-140.43;91.48
30714;BME280;17465;47.934;33.430;2023-03-23T01:41:31;57274.30;;;-140.43;91.74
30714;BME280;17465;47.934;33.430;2023-03-23T01:46:55;57259.47;;;-140.43;91.66
30714;BME280;17465;47.934;33.430;2023-03-23T01:49:31;57259.47;;;-140.43;91.66
30714;BME280;17465;47.934;33.430;2023-03-23T01:52:02;57272.18;;;-140.43;91.38
30714;BME280;17465;47.934;33.430;2023-03-23T01:54:34;57264.77;;;-140.43;91.37
30714;BME280;17465;47.934;33.430;2023-03-23T01:59:37;57254.18;;;-140.43;91.21
30714;BME280;17465;47.934;33.430;2023-03-23T02:02:06;57270.06;;;-140.43;90.83
30714;BME280;17465;47.934;33.430;2023-03-23T02:04:36;57276.42;;;-140.43;91.42
30714;BME280;17465;47.934;33.430;2023-03-23T02:07:06;57267.95;;;-140.43;90.75
30714;BME280;17465;47.934;33.430;2023-03-23T02:09:35;57267.95;;;-140.43;90.75
30714;BME280;17465;47.934;33.430;2023-03-23T02:12:05;57243.59;;;-140.43;90.37
30714;BME280;17465;47.934;33.430;2023-03-23T02:14:35;57254.18;;;-140.43;90.19
30714;BME280;17465;47.934;33.430;2023-03-23T02:17:09;57275.36;;;-140.43;90.71
30714;BME280;17465;47.934;33.430;2023-03-23T02:37:02;57246.77;;;-140.43;90.64
30714;BME280;17465;47.934;33.430;2023-03-23T02:39:34;57274.30;;;-140.43;90.53
30714;BME280;17465;47.934;33.430;2023-03-23T02:42:08;57274.30;;;-140.43;90.53
30714;BME280;17465;47.934;33.430;2023-03-23T02:44:40;57262.65;;;-140.43;90.91
30714;BME280;17465;47.934;33.430;2023-03-23T02:47:14;57256.30;;;-140.43;90.82
30714;BME280;17465;47.934;33.430;2023-03-23T02:49:46;57266.89;;;-140.43;90.96
30714;BME280;17465;47.934;33.430;2023-03-23T02:52:23;57253.12;;;-140.43;91.53
30714;BME280;17465;47.934;33.430;2023-03-23T02:54:51;57253.12;;;-140.43;91.53
30714;BME280;17465;47.934;33.430;2023-03-23T02:57:23;57281.71;;;-140.43;92.37
30714;BME280;17465;47.934;33.430;2023-03-23T02:59:54;57281.71;;;-140.43;92.37
30714;BME280;17465;47.934;33.430;2023-03-23T03:02:28;57256.30;;;-140.43;92.78
30714;BME280;17465;47.934;33.430;2023-03-23T03:07:47;57283.83;;;-140.43;92.68
30714;BME280;17465;47.934;33.430;2023-03-23T03:15:59;57276.42;;;-140.43;92.85
30714;BME280;17465;47.934;33.430;2023-03-23T03:18:32;57254.18;;;-140.43;93.21
30714;BME280;17465;47.934;33.430;2023-03-23T03:21:06;57254.18;;;-140.43;93.21
30714;BME280;17465;47.934;33.430;2023-03-23T03:23:40;57271.13;;;-140.43;93.26
30714;BME280;17465;47.934;33.430;2023-03-23T03:26:18;57264.77;;;-140.43;92.62
30714;BME280;17465;47.934;33.430;2023-03-23T03:28:49;57242.53;;;-140.43;92.34
30714;BME280;17465;47.934;33.430;2023-03-23T03:31:26;57285.95;;;-140.43;92.53
30714;BME280;17465;47.934;33.430;2023-03-23T03:33:55;57261.59;;;-140.43;92.92
30714;BME280;17465;47.934;33.430;2023-03-23T03:36:32;57273.24;;;-140.43;93.08
30714;BME280;17465;47.934;33.430;2023-03-23T03:39:08;57273.24;;;-140.43;93.08
30714;BME280;17465;47.934;33.430;2023-03-23T03:41:39;57281.71;;;-140.43;92.90
30714;BME280;17465;47.934;33.430;2023-03-23T03:44:09;57262.65;;;-140.43;91.43
30714;BME280;17465;47.934;33.430;2023-03-23T03:46:39;57262.65;;;-140.43;91.43
30714;BME280;17465;47.934;33.430;2023-03-23T03:49:10;57264.77;;;-140.43;90.99
30714;BME280;17465;47.934;33.430;2023-03-23T03:51:40;57272.18;;;-140.43;91.01
30714;BME280;17465;47.934;33.430;2023-03-23T03:54:10;57269.00;;;-140.43;91.26
30714;BME280;17465;47.934;33.430;2023-03-23T03:56:40;57267.95;;;-140.43;91.18
30714;BME280;17465;47.934;33.430;2023-03-23T03:59:10;57276.42;;;-140.43;91.07
30714;BME280;17465;47.934;33.430;2023-03-23T04:01:43;57276.42;;;-140.43;91.07
30714;BME280;17465;47.934;33.430;2023-03-23T04:04:12;57276.42;;;-140.43;91.29
30714;BME280;17465;47.934;33.430;2023-03-23T04:06:42;57288.07;;;-140.43;91.75
30714;BME280;17465;47.934;33.430;2023-03-23T04:09:11;57288.07;;;-140.43;91.75
30714;BME280;17465;47.934;33.430;2023-03-23T04:11:41;57271.13;;;-140.43;91.41
30714;BME280;17465;47.934;33.430;2023-03-23T04:14:11;57271.13;;;-140.43;91.41
30714;BME280;17465;47.934;33.430;2023-03-23T04:16:41;57259.47;;;-140.43;91.12
30714;BME280;17465;47.934;33.430;2023-03-23T04:19:14;57257.36;;;-140.43;90.79
30714;BME280;17465;47.934;33.430;2023-03-23T04:21:44;57257.36;;;-140.43;90.78
30714;BME280;17465;47.934;33.430;2023-03-23T04:24:13;57257.36;;;-140.43;90.78
30714;BME280;17465;47.934;33.430;2023-03-23T04:26:51;57267.95;;;-140.43;91.46
30714;BME280;17465;47.934;33.430;2023-03-23T04:29:21;57272.18;;;-140.43;91.78
30714;BME280;17465;47.934;33.430;2023-03-23T04:31:51;57272.18;;;-140.43;91.78
30714;BME280;17465;47.934;33.430;2023-03-23T04:34:27;57280.66;;;-140.43;91.72
30714;BME280;17465;47.934;33.430;2023-03-23T04:36:57;57280.66;;;-140.43;91.72
30714;BME280;17465;47.934;33.430;2023-03-23T04:39:26;57258.41;;;-140.43;91.55
30714;BME280;17465;47.934;33.430;2023-03-23T04:41:56;57236.18;;;-140.43;91.93
30714;BME280;17465;47.934;33.430;2023-03-23T04:44:28;57263.71;;;-140.43;91.88
30714;BME280;17465;47.934;33.430;2023-03-23T04:46:57;57245.71;;;-140.43;91.99
30714;BME280;17465;47.934;33.430;2023-03-23T04:49:29;57245.71;;;-140.43;91.99
30714;BME280;17465;47.934;33.430;2023-03-23T04:51:59;57272.18;;;-140.43;91.78
30714;BME280;17465;47.934;33.430;2023-03-23T04:54:28;57234.06;;;-140.43;91.37
30714;BME280;17465;47.934;33.430;2023-03-23T04:56:58;57265.83;;;-140.43;90.97
30714;BME280;17465;47.934;33.430;2023-03-23T04:59:28;57270.06;;;-140.43;90.47
30714;BME280;17465;47.934;33.430;2023-03-23T05:01:59;57270.06;;;-140.43;90.47
30714;BME280;17465;47.934;33.430;2023-03-23T05:04:29;57245.71;;;-140.43;90.53
30714;BME280;17465;47.934;33.430;2023-03-23T05:06:59;57261.59;;;-140.43;88.91
30714;BME280;17465;47.934;33.430;2023-03-23T05:09:28;57261.59;;;-140.43;88.91
30714;BME280;17465;47.934;33.430;2023-03-23T05:12:02;57258.41;;;-140.43;87.99
30714;BME280;17465;47.934;33.430;2023-03-23T05:14:30;57240.41;;;-140.43;87.53
30714;BME280;17465;47.934;33.430;2023-03-23T05:17:00;57234.06;;;-140.43;87.76
30714;BME280;17465;47.934;33.430;2023-03-23T05:19:30;57241.47;;;-140.43;87.96
30714;BME280;17465;47.934;33.430;2023-03-23T05:22:00;57262.65;;;-140.43;87.50
30714;BME280;17465;47.934;33.430;2023-03-23T05:24:33;57269.00;;;-140.43;87.10
30714;BME280;17465;47.934;33.430;2023-03-23T05:27:02;57266.89;;;-140.43;86.72
30714;BME280;17465;47.934;33.430;2023-03-23T05:29:32;57266.89;;;-140.43;86.72
30714;BME280;17465;47.934;33.430;2023-03-23T05:32:04;57274.30;;;-140.43;85.11
30714;BME280;17465;47.934;33.430;2023-03-23T05:34:34;57258.41;;;-140.43;85.83
30714;BME280;17465;47.934;33.430;2023-03-23T05:37:04;57259.47;;;-140.43;85.27
30714;BME280;17465;47.934;33.430;2023-03-23T05:39:34;57239.35;;;-140.43;83.90
30714;BME280;17465;47.934;33.430;2023-03-23T05:42:04;57240.41;;;-140.43;79.81
30714;BME280;17465;47.934;33.430;2023-03-23T05:44:34;57240.41;;;-140.43;79.81
30714;BME280;17465;47.934;33.430;2023-03-23T05:47:04;57227.70;;;-140.43;76.92
30714;BME280;17465;47.934;33.430;2023-03-23T05:49:33;57254.18;;;-140.43;74.16
30714;BME280;17465;47.934;33.430;2023-03-23T05:52:03;57254.18;;;-140.43;74.16
30714;BME280;17465;47.934;33.430;2023-03-23T05:54:32;57266.89;;;-140.43;72.50
30714;BME280;17465;47.934;33.430;2023-03-23T05:57:02;57271.13;;;-140.43;71.19
30714;BME280;17465;47.934;33.430;2023-03-23T05:59:32;57244.65;;;-140.43;68.15
30714;BME280;17465;47.934;33.430;2023-03-23T06:02:01;57275.36;;;-140.43;66.50
30714;BME280;17465;47.934;33.430;2023-03-23T06:04:32;57275.36;;;-140.43;66.50
30714;BME280;17465;47.934;33.430;2023-03-23T06:07:02;57287.01;;;-140.43;64.20
30714;BME280;17465;47.934;33.430;2023-03-23T06:09:35;57253.12;;;-140.43;61.51
30714;BME280;17465;47.934;33.430;2023-03-23T06:12:09;57279.59;;;-140.43;60.91
30714;BME280;17465;47.934;33.430;2023-03-23T06:14:39;57285.95;;;-140.43;58.15
30714;BME280;17465;47.934;33.430;2023-03-23T06:17:09;57314.55;;;-140.43;56.50
30714;BME280;17465;47.934;33.430;2023-03-23T06:19:39;57292.30;;;-140.43;56.24
30714;BME280;17465;47.934;33.430;2023-03-23T06:22:09;57282.77;;;-140.43;55.50
30714;BME280;17465;47.934;33.430;2023-03-23T06:24:38;57313.48;;;-140.43;53.98
30714;BME280;17465;47.934;33.430;2023-03-23T06:27:17;57295.48;;;-140.43;54.31
30714;BME280;17465;47.934;33.430;2023-03-23T06:29:50;57313.48;;;-140.43;53.74
30714;BME280;17465;47.934;33.430;2023-03-23T06:32:20;57319.84;;;-140.43;53.60
30714;BME280;17465;47.934;33.430;2023-03-23T06:34:49;57305.01;;;-140.43;54.07
30714;BME280;17465;47.934;33.430;2023-03-23T06:37:18;57312.43;;;-140.43;52.36
30714;BME280;17465;47.934;33.430;2023-03-23T06:39:47;57325.14;;;-140.43;51.50
30714;BME280;17465;47.934;33.430;2023-03-23T06:42:17;57341.02;;;-140.43;51.39
30714;BME280;17465;47.934;33.430;2023-03-23T06:44:47;57343.14;;;-140.43;50.69
30714;BME280;17465;47.934;33.430;2023-03-23T06:47:17;57343.14;;;-140.43;50.69
30714;BME280;17465;47.934;33.430;2023-03-23T06:49:46;57325.14;;;-140.43;50.38
30714;BME280;17465;47.934;33.430;2023-03-23T06:52:16;57325.14;;;-140.43;50.38
30714;BME280;17465;47.934;33.430;2023-03-23T06:54:46;57337.84;;;-140.43;49.39
30714;BME280;17465;47.934;33.430;2023-03-23T06:57:15;57356.91;;;-140.43;48.79
30714;BME280;17465;47.934;33.430;2023-03-23T06:59:45;57359.03;;;-140.43;49.30
30714;BME280;17465;47.934;33.430;2023-03-23T07:02:15;57359.03;;;-140.43;49.30
30714;BME280;17465;47.934;33.430;2023-03-23T07:04:45;57355.85;;;-140.43;47.73
30714;BME280;17465;47.934;33.430;2023-03-23T07:07:15;57355.85;;;-140.43;47.89
30714;BME280;17465;47.934;33.430;2023-03-23T07:09:46;57371.73;;;-140.43;45.52
30714;BME280;17465;47.934;33.430;2023-03-23T07:12:15;57386.56;;;-140.43;44.40
30714;BME280;17465;47.934;33.430;2023-03-23T07:14:45;57371.73;;;-140.43;43.01
30714;BME280;17465;47.934;33.430;2023-03-23T07:17:15;57410.92;;;-140.43;40.90
30714;BME280;17465;47.934;33.430;2023-03-23T07:19:44;57408.80;;;-140.43;42.05
30714;BME280;17465;47.934;33.430;2023-03-23T07:22:17;57419.39;;;-140.43;42.17
30714;BME280;17465;47.934;33.430;2023-03-23T07:24:49;57432.10;;;-140.43;40.60
30714;BME280;17465;47.934;33.430;2023-03-23T07:27:19;57432.10;;;-140.43;40.60
30714;BME280;17465;47.934;33.430;2023-03-23T07:29:48;57429.98;;;-140.43;39.38
30714;BME280;17465;47.934;33.430;2023-03-23T07:32:18;57429.98;;;-140.43;39.38
30714;BME280;17465;47.934;33.430;2023-03-23T07:34:47;57492.47;;;-140.43;38.69
30714;BME280;17465;47.934;33.430;2023-03-23T07:37:16;57517.89;;;-140.43;38.63
30714;BME280;17465;47.934;33.430;2023-03-23T07:39:46;57476.58;;;-140.43;36.66
30714;BME280;17465;47.934;33.430;2023-03-23T07:42:17;57504.12;;;-140.43;37.41
30714;BME280;17465;47.934;33.430;2023-03-23T07:44:47;57496.71;;;-140.43;36.43
30714;BME280;17465;47.934;33.430;2023-03-23T07:47:20;57496.71;;;-140.43;36.43
30714;BME280;17465;47.934;33.430;2023-03-23T07:49:49;57543.31;;;-140.43;35.58
30714;BME280;17465;47.934;33.430;2023-03-23T07:52:18;57525.30;;;-140.43;37.72
30714;BME280;17465;47.934;33.430;2023-03-23T07:54:49;57548.61;;;-140.43;34.73
30714;BME280;17465;47.934;33.430;2023-03-23T07:57:18;57548.61;;;-140.43;34.73
30714;BME280;17465;47.934;33.430;2023-03-23T07:59:51;57623.80;;;-140.43;31.98
30714;BME280;17465;47.934;33.430;2023-03-23T08:02:21;57693.71;;;-140.43;31.07
30714;BME280;17465;47.934;33.430;2023-03-23T08:04:51;57697.95;;;-140.43;30.08
30714;BME280;17465;47.934;33.430;2023-03-23T08:07:23;57652.40;;;-140.43;31.17
30714;BME280;17465;47.934;33.430;2023-03-23T08:09:53;57652.40;;;-140.43;31.17
30714;BME280;17465;47.934;33.430;2023-03-23T08:12:22;57642.87;;;-140.43;31.53
30714;BME280;17465;47.934;33.430;2023-03-23T08:14:51;57620.62;;;-140.43;31.64
30714;BME280;17465;47.934;33.430;2023-03-23T08:17:22;57620.62;;;-140.43;31.64
30714;BME280;17465;47.934;33.430;2023-03-23T08:19:55;57635.45;;;-140.43;29.85
30714;BME280;17465;47.934;33.430;2023-03-23T08:22:25;57634.39;;;-140.43;30.28
30714;BME280;17465;47.934;33.430;2023-03-23T08:24:55;57597.32;;;-140.43;31.99
30714;BME280;17465;47.934;33.430;2023-03-23T08:27:24;57542.25;;;-140.43;31.65
30714;BME280;17465;47.934;33.430;2023-03-23T08:29:58;57542.25;;;-140.43;31.65
30714;BME280;17465;47.934;33.430;2023-03-23T08:32:28;57593.09;;;-140.43;31.02
30714;BME280;17465;47.934;33.430;2023-03-23T08:34:59;57702.18;;;-140.43;28.74
30714;BME280;17465;47.934;33.430;2023-03-23T08:37:29;57702.18;;;-140.43;28.74
30714;BME280;17465;47.934;33.430;2023-03-23T08:39:58;57720.19;;;-140.43;28.08
30714;BME280;17465;47.934;33.430;2023-03-23T08:42:28;57653.46;;;-140.43;28.40
30714;BME280;17465;47.934;33.430;2023-03-23T08:44:58;57653.46;;;-140.43;28.40
30714;BME280;17465;47.934;33.430;2023-03-23T08:47:27;57662.99;;;-140.43;29.15
30714;BME280;17465;47.934;33.430;2023-03-23T08:49:57;57638.63;;;-140.43;29.05
30714;BME280;17465;47.934;33.430;2023-03-23T08:52:27;57676.76;;;-140.43;28.38
30714;BME280;17465;47.934;33.430;2023-03-23T08:54:57;57678.88;;;-140.43;28.82
30714;BME280;17465;47.934;33.430;2023-03-23T08:57:28;57655.58;;;-140.43;30.22
30714;BME280;17465;47.934;33.430;2023-03-23T08:59:59;57621.68;;;-140.43;29.85
30714;BME280;17465;47.934;33.430;2023-03-23T09:02:31;57681.00;;;-140.43;27.94
30714;BME280;17465;47.934;33.430;2023-03-23T09:05:00;57672.52;;;-140.43;28.43
30714;BME280;17465;47.934;33.430;2023-03-23T09:07:31;57672.52;;;-140.43;28.43
30714;BME280;17465;47.934;33.430;2023-03-23T09:10:10;57614.27;;;-140.43;29.40
30714;BME280;17465;47.934;33.430;2023-03-23T09:12:43;57641.81;;;-140.43;29.21
30714;BME280;17465;47.934;33.430;2023-03-23T09:15:16;57689.47;;;-140.43;27.75
30714;BME280;17465;47.934;33.430;2023-03-23T09:17:49;57689.47;;;-140.43;27.75
30714;BME280;17465;47.934;33.430;2023-03-23T09:20:21;57613.21;;;-140.43;29.96
30714;BME280;17465;47.934;33.430;2023-03-23T09:22:53;57620.62;;;-140.43;29.35
30714;BME280;17465;47.934;33.430;2023-03-23T09:25:25;57620.62;;;-140.43;29.35
30714;BME280;17465;47.934;33.430;2023-03-23T09:27:57;57724.42;;;-140.43;28.62
30714;BME280;17465;47.934;33.430;2023-03-23T09:30:30;57791.15;;;-140.43;26.92
30714;BME280;17465;47.934;33.430;2023-03-23T09:33:01;57799.62;;;-140.43;27.41
30714;BME280;17465;47.934;33.430;2023-03-23T09:35:37;57799.62;;;-140.43;27.41
30714;BME280;17465;47.934;33.430;2023-03-23T09:38:04;57699.00;;;-140.43;28.86
30714;BME280;17465;47.934;33.430;2023-03-23T09:41:11;57699.00;;;-140.43;28.86
30714;BME280;17465;47.934;33.430;2023-03-23T09:46:30;57714.89;;;-140.43;28.28
30714;BME280;17465;47.934;33.430;2023-03-23T09:49:08;57719.12;;;-140.43;29.40
30714;BME280;17465;47.934;33.430;2023-03-23T09:52:00;57757.26;;;-140.43;28.49
30714;BME280;17465;47.934;33.430;2023-03-23T09:54:40;57799.62;;;-140.43;27.17
30714;BME280;17465;47.934;33.430;2023-03-23T10:00:20;57813.39;;;-140.43;26.62
30714;BME280;17465;47.934;33.430;2023-03-23T10:02:59;57833.52;;;-140.43;25.68
30714;BME280;17465;47.934;33.430;2023-03-23T10:05:53;57759.38;;;-140.43;27.13
30714;BME280;17465;47.934;33.430;2023-03-23T10:08:39;57825.05;;;-140.43;26.93
30714;BME280;17465;47.934;33.430;2023-03-23T10:14:24;57792.21;;;-140.43;27.34
30714;BME280;17465;47.934;33.430;2023-03-23T10:20:22;55935.94;;;-140.43;26.56
30714;BME280;17465;47.934;33.430;2023-03-23T10:23:24;57671.46;;;-140.43;27.67
30714;BME280;17465;47.934;33.430;2023-03-23T10:28:46;57748.79;;;-140.43;27.04
30714;BME280;17465;47.934;33.430;2023-03-23T10:32:14;57714.89;;;-140.43;27.69
30714;BME280;17465;47.934;33.430;2023-03-23T10:33:55;57702.18;;;-140.43;28.14
30714;BME280;17465;47.934;33.430;2023-03-23T10:36:30;57702.18;;;-140.43;28.14
30714;BME280;17465;47.934;33.430;2023-03-23T10:39:12;57657.70;;;-140.43;27.87
30714;BME280;17465;47.934;33.430;2023-03-23T10:41:41;57657.70;;;-140.43;28.05
30714;BME280;17465;47.934;33.430;2023-03-23T10:44:21;57720.19;;;-140.43;28.18
30714;BME280;17465;47.934;33.430;2023-03-23T10:52:27;57677.82;;;-140.43;28.26
30714;BME280;17465;47.934;33.430;2023-03-23T10:55:12;57750.90;;;-140.43;27.96
30714;BME280;17465;47.934;33.430;2023-03-23T10:57:47;57750.90;;;-140.43;27.96
30714;BME280;17465;47.934;33.430;2023-03-23T11:00:27;57590.97;;;-140.43;29.13
30714;BME280;17465;47.934;33.430;2023-03-23T11:05:55;57603.68;;;-140.43;29.15
30714;BME280;17465;47.934;33.430;2023-03-23T11:08:27;57586.73;;;-140.43;30.38
30714;BME280;17465;47.934;33.430;2023-03-23T11:11:21;57526.36;;;-140.43;31.91
30714;BME280;17465;47.934;33.430;2023-03-23T11:14:03;57526.36;;;-140.43;31.23
30714;BME280;17465;47.934;33.430;2023-03-23T11:16:34;57640.75;;;-140.43;28.91
30714;BME280;17465;47.934;33.430;2023-03-23T11:19:14;57640.75;;;-140.43;28.91
30714;BME280;17465;47.934;33.430;2023-03-23T11:21:59;57828.22;;;-140.43;25.55
30714;BME280;17465;47.934;33.430;2023-03-23T11:24:33;57799.62;;;-140.43;25.77
30714;BME280;17465;47.934;33.430;2023-03-23T11:26:58;57799.62;;;-140.43;25.77
30714;BME280;17465;47.934;33.430;2023-03-23T11:29:29;57689.47;;;-140.43;26.64
30714;BME280;17465;47.934;33.430;2023-03-23T11:34:44;57828.22;;;-140.43;26.53
30714;BME280;17465;47.934;33.430;2023-03-23T11:42:58;57761.49;;;-140.43;26.71
30714;BME280;17465;47.934;33.430;2023-03-23T11:45:37;57805.98;;;-140.43;25.49
30714;BME280;17465;47.934;33.430;2023-03-23T11:51:08;57758.32;;;-140.43;26.04
30714;BME280;17465;47.934;33.430;2023-03-23T11:56:41;57837.76;;;-140.43;25.12
30714;BME280;17465;47.934;33.430;2023-03-23T11:59:18;57782.68;;;-140.43;26.14
30714;BME280;17465;47.934;33.430;2023-03-23T12:10:48;57894.95;;;-140.43;24.35
30714;BME280;17465;47.934;33.430;2023-03-23T12:31:03;57819.75;;;-140.43;25.22
30714;BME280;17465;47.934;33.430;2023-03-23T12:33:54;57784.80;;;-140.43;24.87
30714;BME280;17465;47.934;33.430;2023-03-23T12:37:28;57742.43;;;-140.43;25.29
30714;BME280;17465;47.934;33.430;2023-03-23T12:40:32;57742.43;;;-140.43;25.29
30714;BME280;17465;47.934;33.430;2023-03-23T12:43:24;57823.99;;;-140.43;25.42
30714;BME280;17465;47.934;33.430;2023-03-23T12:48:41;57778.44;;;-140.43;25.79
30714;BME280;17465;47.934;33.430;2023-03-23T12:51:29;57778.44;;;-140.43;25.79
30714;BME280;17465;47.934;33.430;2023-03-23T12:59:23;57885.42;;;-140.43;24.11
30714;BME280;17465;47.934;33.430;2023-03-23T13:02:14;57775.27;;;-140.43;25.68
30714;BME280;17465;47.934;33.430;2023-03-23T13:04:50;57632.27;;;-140.43;27.18
30714;BME280;17465;47.934;33.430;2023-03-23T13:07:22;57720.19;;;-140.43;27.04
30714;BME280;17465;47.934;33.430;2023-03-23T13:10:07;57720.19;;;-140.43;27.04
30714;BME280;17465;47.934;33.430;2023-03-23T13:12:33;57691.59;;;-140.43;26.85
30714;BME280;17465;47.934;33.430;2023-03-23T13:17:56;57564.49;;;-140.43;29.80
30714;BME280;17465;47.934;33.430;2023-03-23T13:20:51;57564.49;;;-140.43;30.33
30714;BME280;17465;47.934;33.430;2023-03-23T13:23:24;57564.49;;;-140.43;28.81
30714;BME280;17465;47.934;33.430;2023-03-23T13:26:02;57544.37;;;-140.43;29.31
30714;BME280;17465;47.934;33.430;2023-03-23T13:34:00;57488.23;;;-140.43;30.60
30714;BME280;17465;47.934;33.430;2023-03-23T13:36:38;57477.64;;;-140.43;31.03
30714;BME280;17465;47.934;33.430;2023-03-23T13:39:24;57469.17;;;-140.43;31.00
30714;BME280;17465;47.934;33.430;2023-03-23T13:42:04;57469.17;;;-140.43;31.00
30714;BME280;17465;47.934;33.430;2023-03-23T13:47:37;57523.18;;;-140.43;30.08
30714;BME280;17465;47.934;33.430;2023-03-23T13:53:01;57534.84;;;-140.43;30.24
30714;BME280;17465;47.934;33.430;2023-03-23T13:58:10;57552.84;;;-140.43;29.46
30714;BME280;17465;47.934;33.430;2023-03-23T14:01:01;57512.59;;;-140.43;29.80
30714;BME280;17465;47.934;33.430;2023-03-23T14:03:45;57512.59;;;-140.43;29.80
30714;BME280;17465;47.934;33.430;2023-03-23T14:06:14;57459.64;;;-140.43;31.23
30714;BME280;17465;47.934;33.430;2023-03-23T14:08:48;57459.64;;;-140.43;31.23
30714;BME280;17465;47.934;33.430;2023-03-23T14:11:26;57447.99;;;-140.43;31.42
30714;BME280;17465;47.934;33.430;2023-03-23T14:14:07;57497.77;;;-140.43;31.63
30714;BME280;17465;47.934;33.430;2023-03-23T14:16:42;57477.64;;;-140.43;31.44
30714;BME280;17465;47.934;33.430;2023-03-23T14:19:29;57477.64;;;-140.43;31.44
30714;BME280;17465;47.934;33.430;2023-03-23T14:22:01;57461.76;;;-140.43;31.10
30714;BME280;17465;47.934;33.430;2023-03-23T14:24:33;57437.39;;;-140.43;32.53
30714;BME280;17465;47.934;33.430;2023-03-23T14:27:18;57441.63;;;-140.43;31.66
30714;BME280;17465;47.934;33.430;2023-03-23T14:29:45;57449.05;;;-140.43;31.80
30714;BME280;17465;47.934;33.430;2023-03-23T14:32:17;57449.05;;;-140.43;31.80
30714;BME280;17465;47.934;33.430;2023-03-23T14:34:48;57423.63;;;-140.43;31.87
30714;BME280;17465;47.934;33.430;2023-03-23T14:37:19;57423.63;;;-140.43;31.87
30714;BME280;17465;47.934;33.430;2023-03-23T14:39:56;57428.92;;;-140.43;32.61
30714;BME280;17465;47.934;33.430;2023-03-23T14:42:32;57428.92;;;-140.43;32.61
30714;BME280;17465;47.934;33.430;2023-03-23T14:45:05;57403.51;;;-140.43;32.38
30714;BME280;17465;47.934;33.430;2023-03-23T14:47:44;57449.05;;;-140.43;32.35
30714;BME280;17465;47.934;33.430;2023-03-23T14:52:51;57459.64;;;-140.43;32.82
30714;BME280;17465;47.934;33.430;2023-03-23T14:55:23;57418.33;;;-140.43;32.44
30714;BME280;17465;47.934;33.430;2023-03-23T14:57:53;57440.57;;;-140.43;33.03
30714;BME280;17465;47.934;33.430;2023-03-23T15:00:34;57440.57;;;-140.43;33.03
30714;BME280;17465;47.934;33.430;2023-03-23T15:03:10;57416.21;;;-140.43;32.77